Aérodrome :
LOGIN :

S'inscrire | Disclaimer

   EN    FR    IT 

 










Légende :    VFR   VFR Marginal   IFR   IFR Intensif   IFR Très Intensif
Visi : 
Plafond : 
>= 8 km
>= 3000ft
5 à 8 km
1000 à 3000 ft
1500m à 5 km
500 à 1000 ft
800 à 1500m
200 à 500 ft
< 800m
< 200 ft
Symboles :   Orages  Brouillard  Fortes neiges  Fortes précipitations  Vent > 20 kt
SIGMETs :   Divers  Orages  Givrage  Turbulence  Onde Orograph.  Cendres Volcan.







- Altitude de l'aérodrome : 614 ft
- Code IATA : CRL


EBCI - Charleroi

DERNIER METAR :
  • 011720Z 17009KT 4000 -RA FEW004 BKN006 06/05 Q0999 TEMPO 24015G25KT 4000 BKN004

METARs EXPIRÉS :
  • 011650Z 18008KT 150V210 5000 -RA FEW004 BKN008 06/05 Q1000 TEMPO 24015G25KT 4000 BKN004
  • 011620Z 17006KT 140V210 5000 -RA FEW004 BKN008 06/05 Q1000 TEMPO 24015G25KT 4000 BKN004
  • 011550Z 20006KT 9000 -RA FEW005 SCT008 BKN018 06/05 Q1001 TEMPO 24015G25KT BKN008
  • 011520Z 22009KT 8000 -RA FEW005 SCT008 BKN020 06/05 Q1002 TEMPO 24015G25KT BKN008
  • 011450Z 21013KT 9999 -RA FEW005 SCT008 BKN020 07/04 Q1002 TEMPO 24015G25KT BKN008

TAF TAF EBCI
Valide du 01 à 18h jusqu'au 03 à 00h UTC


011714Z 0118/0224 19012KT 8000 -RA FEW004 BKN006
TEMPO 0118/0120 4000 -RADZ BKN004
BECMG 0122/0124 24015G25KT FEW012 SCT025
TEMPO 0202/0213 25020G35KT
BECMG 0216/0218 24010KT
Pas de NOTAMs connus pour ce terrain.



MET'MAP, la Météo Aéronautique d'un coup d'oeil ! - Copyright ORBIFLY Décembre 2007 - Disclaimer

ORBIFLY MET'MAP TEAM :

Programmation & Développement : Alexandra Zaïnal
Conception & Développement : Baudouin d'Aumeries
Co-Programmation & Développement : Marc-Olivier Méhu
Soutien technique & logistique : Manuel Goepfert

Contact : metmap@orbifly.com




SOURCES & CREDITS :

   NOAA